Terminal Aerodrome Forecast
Issued by NWS

Home | Current Version | Previous Version | Text Only | Print | Product List | Glossary On
Versions: 1 2 3 4 5 6 7 8 9 10 11 12 13 14 15 16 17 18 19 20 21 22 23 24 25 26 27 28 29 30 31 32 33 34 35 36 37 38 39 40 41 42 43 44 45 46 47 48
000
FTUS43 KMKX 310530
TAFUES
TAF
KUES 310530Z 3106/0106 21005KT 6SM BR SKC
     FM310800 22004KT 2SM BR FEW004
     FM311000 24004KT 1/2SM FG VV002
     FM311300 24004KT 2SM BR SCT008
     FM311400 24004KT 6SM BR SCT015
     FM311600 19005KT P6SM SCT250
     FM312100 15009KT P6SM SCT250=

USA.gov is the U.S. government's official web portal to all federal, state and local government web resources and services.